createdAt,value
2023-04-02T00:02:23.888Z,8.64
2023-04-02T00:08:18.694Z,8.57
2023-04-02T00:14:24.368Z,8.54
2023-04-02T00:21:09.668Z,8.57
2023-04-02T00:27:14.088Z,8.54
2023-04-02T00:33:36.060Z,8.51
2023-04-02T00:40:03.627Z,8.50
2023-04-02T00:45:30.589Z,8.56
2023-04-02T00:50:46.914Z,8.63
2023-04-02T00:56:14.947Z,8.69
2023-04-02T01:02:24.083Z,8.75
2023-04-02T01:09:19.900Z,8.79
2023-04-02T01:16:04.556Z,8.84
2023-04-02T01:21:35.237Z,8.86
2023-04-02T01:27:40.119Z,8.86
2023-04-02T01:33:47.544Z,8.87
2023-04-02T01:40:02.010Z,8.86
2023-04-02T01:45:31.338Z,8.89
2023-04-02T01:51:48.729Z,8.88
2023-04-02T01:58:13.580Z,8.90
2023-04-02T02:04:28.816Z,8.92
2023-04-02T02:11:19.203Z,8.88
2023-04-02T02:17:46.299Z,8.91
2023-04-02T02:24:04.767Z,8.93
2023-04-02T02:29:36.294Z,8.96
2023-04-02T02:36:01.438Z,8.97
2023-04-02T02:42:10.245Z,8.95
2023-04-02T02:47:54.777Z,8.95
2023-04-02T02:53:26.394Z,8.96
2023-04-02T02:59:28.656Z,8.97
2023-04-02T03:09:52.698Z,9.04
2023-04-02T03:15:58.440Z,9.04
2023-04-02T03:22:47.701Z,9.01
2023-04-02T03:28:54.441Z,8.96
2023-04-02T03:35:50.293Z,8.91
2023-04-02T03:42:58.786Z,8.90
2023-04-02T03:50:05.286Z,8.93
2023-04-02T03:56:40.915Z,8.87
2023-04-02T04:03:47.175Z,8.74
2023-04-02T04:10:49.699Z,8.65
2023-04-02T04:17:46.835Z,8.60
2023-04-02T04:24:55.180Z,8.50
2023-04-02T04:32:11.732Z,8.41
2023-04-02T04:39:19.168Z,8.43
2023-04-02T04:46:26.207Z,8.42
2023-04-02T04:53:36.858Z,8.38
2023-04-02T05:00:45.241Z,8.24
2023-04-02T05:08:05.319Z,8.07
2023-04-02T05:15:18.609Z,7.83
2023-04-02T05:22:32.722Z,7.58
2023-04-02T05:29:12.708Z,7.31
2023-04-02T05:35:41.781Z,7.07
2023-04-02T05:42:36.911Z,6.87
2023-04-02T05:49:38.546Z,6.59
2023-04-02T05:56:50.506Z,6.37
2023-04-02T06:03:18.946Z,6.23
2023-04-02T06:09:51.115Z,6.02
2023-04-02T06:16:58.558Z,5.86
2023-04-02T06:23:30.542Z,5.75
2023-04-02T06:30:28.688Z,5.71
2023-04-02T06:37:38.010Z,5.76
2023-04-02T06:43:50.844Z,5.72
2023-04-02T06:50:46.525Z,5.77
2023-04-02T06:57:36.838Z,5.80
2023-04-02T07:03:14.758Z,5.76
2023-04-02T07:09:08.629Z,5.77
2023-04-02T07:16:08.511Z,5.73
2023-04-02T07:22:25.294Z,5.56
2023-04-02T07:27:52.864Z,5.46
2023-04-02T07:34:27.472Z,5.39
2023-04-02T07:41:04.248Z,5.16
2023-04-02T07:47:13.201Z,4.97
2023-04-02T07:53:27.785Z,4.98
2023-04-02T07:59:11.848Z,5.20
2023-04-02T08:05:38.623Z,5.35
2023-04-02T08:11:02.505Z,5.31
2023-04-02T08:17:43.371Z,5.25
2023-04-02T08:23:58.020Z,5.29
2023-04-02T08:30:10.298Z,5.54
2023-04-02T08:35:20.034Z,5.79
2023-04-02T08:41:37.784Z,5.92
2023-04-02T08:47:23.270Z,5.85
2023-04-02T08:53:26.132Z,5.82
2023-04-02T08:59:37.115Z,5.70
2023-04-02T09:06:18.912Z,5.41
2023-04-02T09:12:47.008Z,5.16
2023-04-02T09:19:20.211Z,5.00
2023-04-02T09:26:13.555Z,4.91
2023-04-02T09:33:06.723Z,4.81
2023-04-02T09:39:05.922Z,4.77
2023-04-02T09:45:22.473Z,4.83
2023-04-02T09:52:10.467Z,4.95
2023-04-02T09:57:37.713Z,5.09
2023-04-02T10:17:52.923Z,5.08
2023-04-02T10:24:05.484Z,5.12
2023-04-02T10:30:12.155Z,5.21
2023-04-02T10:36:31.262Z,5.33
2023-04-02T10:42:57.143Z,5.52
2023-04-02T10:49:08.760Z,5.71
2023-04-02T10:55:33.871Z,5.74
2023-04-02T11:02:35.114Z,5.67
2023-04-02T11:08:47.392Z,5.71
2023-04-02T11:14:47.662Z,5.94
2023-04-02T11:20:08.276Z,6.18
2023-04-02T11:25:29.360Z,6.16
2023-04-02T11:31:15.408Z,6.08
2023-04-02T11:37:26.815Z,6.09
2023-04-02T11:42:50.506Z,6.11
2023-04-02T11:48:54.611Z,6.04
2023-04-02T11:54:57.674Z,5.90
2023-04-02T12:01:22.232Z,5.93
2023-04-02T12:06:55.326Z,5.94
2023-04-02T12:12:15.891Z,5.84
2023-04-02T12:17:44.335Z,5.74
2023-04-02T12:23:07.817Z,5.70
2023-04-02T12:28:41.969Z,5.83
2023-04-02T12:34:04.053Z,6.00
2023-04-02T12:39:20.817Z,5.96
2023-04-02T12:44:30.489Z,5.81
2023-04-02T12:49:53.800Z,5.74
2023-04-02T12:56:32.220Z,5.73
2023-04-02T13:01:40.287Z,5.74
2023-04-02T13:06:58.853Z,5.75
2023-04-02T13:12:04.067Z,5.77
2023-04-02T13:18:00.665Z,5.76
2023-04-02T13:23:39.088Z,5.90
2023-04-02T13:29:39.660Z,6.14
2023-04-02T13:35:32.843Z,6.08
2023-04-02T13:40:40.786Z,5.83
2023-04-02T13:45:57.227Z,5.74
2023-04-02T13:51:01.862Z,5.72
2023-04-02T13:56:33.737Z,5.67
2023-04-02T14:01:56.778Z,5.58
2023-04-02T14:07:27.252Z,5.54
2023-04-02T14:13:27.754Z,5.49
2023-04-02T14:19:26.456Z,5.44
2023-04-02T14:25:18.172Z,5.38
2023-04-02T14:31:23.734Z,5.28
2023-04-02T14:37:09.501Z,5.16
2023-04-02T14:42:55.638Z,5.04
2023-04-02T14:49:10.455Z,4.98
2023-04-02T14:55:36.809Z,4.89
2023-04-02T15:01:47.175Z,4.75
2023-04-02T15:07:24.486Z,4.72
2023-04-02T15:13:00.146Z,4.71
2023-04-02T15:20:00.193Z,4.65
2023-04-02T15:26:39.349Z,4.59
2023-04-02T15:33:40.042Z,4.53
2023-04-02T15:40:27.940Z,4.55
2023-04-02T15:47:09.824Z,4.54
2023-04-02T15:53:12.110Z,4.54
2023-04-02T15:59:19.155Z,4.48
2023-04-02T16:05:14.193Z,4.37
2023-04-02T16:10:41.932Z,4.31
2023-04-02T16:16:32.452Z,4.24
2023-04-02T16:22:53.375Z,4.21
2023-04-02T16:28:50.907Z,4.14
2023-04-02T16:34:41.837Z,4.10
2023-04-02T16:40:57.137Z,4.09
2023-04-02T16:47:15.195Z,4.10
2023-04-02T16:53:07.456Z,4.07
2023-04-02T16:59:07.781Z,4.01
2023-04-02T17:05:39.363Z,3.92
2023-04-02T17:11:17.662Z,3.86
2023-04-02T17:16:57.542Z,3.85
2023-04-02T17:24:04.305Z,3.90
2023-04-02T17:30:56.114Z,3.94
2023-04-02T17:37:45.919Z,3.89
2023-04-02T17:44:28.022Z,3.79
2023-04-02T17:50:27.935Z,3.80
2023-04-02T17:56:34.348Z,3.77
2023-04-02T18:02:59.455Z,3.72
2023-04-02T18:08:59.697Z,3.68
2023-04-02T18:15:46.696Z,3.66
2023-04-02T18:22:13.019Z,3.68
2023-04-02T18:27:57.299Z,3.71
2023-04-02T18:33:55.990Z,3.73
2023-04-02T18:40:23.879Z,3.69
2023-04-02T18:46:04.719Z,3.63
2023-04-02T18:51:38.080Z,3.60
2023-04-02T18:57:29.806Z,3.64
2023-04-02T19:03:43.865Z,3.63
2023-04-02T19:09:48.355Z,3.58
2023-04-02T19:15:03.670Z,3.57
2023-04-02T19:20:29.396Z,3.54
2023-04-02T19:26:00.142Z,3.54
2023-04-02T19:32:11.654Z,3.54
2023-04-02T19:38:33.176Z,3.53
2023-04-02T19:43:55.504Z,3.49
2023-04-02T19:49:30.482Z,3.45
2023-04-02T19:54:59.644Z,3.45
2023-04-02T20:00:33.074Z,3.47
2023-04-02T20:06:05.281Z,3.47
2023-04-02T20:11:14.971Z,3.44
2023-04-02T20:16:39.741Z,3.39
2023-04-02T20:22:14.817Z,3.35
2023-04-02T20:27:42.336Z,3.32
2023-04-02T20:34:01.658Z,3.29
2023-04-02T20:40:34.789Z,3.29
2023-04-02T20:45:43.807Z,3.25
2023-04-02T20:50:47.644Z,3.23
2023-04-02T20:56:42.776Z,3.22
2023-04-02T21:08:58.754Z,3.33
2023-04-02T21:14:11.385Z,3.33
2023-04-02T21:19:35.098Z,3.27
2023-04-02T21:24:47.373Z,3.27
2023-04-02T21:30:17.739Z,3.31
2023-04-02T21:36:29.649Z,3.36
2023-04-02T21:43:46.576Z,3.32
2023-04-02T21:51:03.521Z,3.28
2023-04-02T21:57:49.380Z,3.26
2023-04-02T22:04:38.587Z,3.22
2023-04-02T22:55:22.054Z,4.39
2023-04-02T23:28:16.478Z,3.67
2023-04-02T23:35:19.472Z,3.20
2023-04-02T23:42:27.184Z,2.96
2023-04-02T23:49:53.193Z,2.83
2023-04-02T23:56:59.848Z,2.69
